Friday, May 25, 2018, 8:33 PM EDT
Back to Local

KBTV, Burlington International

Location: South Burlington, VT, United States Lat: 44.467
Local Time: 8:33 PM EDT ( 0:33 GMT) Lon: -73.15
Time Zone: US/Eastern Elev: 334 ft

Show me the last for .
Show Decoded

2018-05-25 19:54 METAR KBTV 252354Z 13005KT 10SM -RA SCT075 BKN090 OVC110 20/16 A2973 RMK AO2
                 SLP066 P0003 60003 T02000156 10278 20194 53002 =
2018-05-25 18:54 METAR KBTV 252254Z 27015G21KT 10SM -RA FEW047 BKN080 OVC100 24/12 A2974 RMK AO2
                 RAB35 SLP069 P0000 T02440122 =
2018-05-25 17:54 METAR KBTV 252154Z 23005KT 10SM FEW075 BKN100 OVC150 26/12 A2971 RMK AO2 SLP059
                 T02560122 =
2018-05-25 16:54 METAR KBTV 252054Z 25006KT 10SM SCT095 BKN130 26/13 A2972 RMK AO2 SLP064
                 T02610128 56009 =
2018-05-25 15:54 METAR KBTV 251954Z 23004KT 10SM SCT090 BKN110 OVC130 26/12 A2973 RMK AO2 SLP066
                 T02610122 =
2018-05-25 14:54 METAR KBTV 251854Z 28004KT 10SM OVC070 25/12 A2974 RMK AO2 SLP068 T02500122 =
2018-05-25 13:54 METAR KBTV 251754Z 00000KT 10SM BKN085 OVC200 24/13 A2975 RMK AO2 RAE14 SLP073
                 P0000 60000 T02440133 10283 20194 58018 =
2018-05-25 12:54 METAR KBTV 251654Z 29006KT 10SM -RA BKN075 BKN095 OVC200 24/13 A2979 RMK AO2
                 RAB19 SLP085 P0000 T02440128 =
2018-05-25 11:54 METAR KBTV 251554Z 22010KT 10SM SCT075 BKN120 BKN200 27/10 A2979 RMK AO2 SLP086
                 T02720100 =
2018-05-25 10:54 METAR KBTV 251454Z 22009KT 10SM SCT120 BKN200 27/12 A2981 RMK AO2 SLP092 ACSL
                 SE-W T02720117 58020 =
2018-05-25 09:54 METAR KBTV 251354Z 19010KT 10SM FEW120 SCT250 24/11 A2983 RMK AO2 SLP101 ACC W
                 ACSL E & W T02440111 =
2018-05-25 08:54 METAR KBTV 251254Z 21010KT 10SM FEW090 SCT110 22/10 A2986 RMK AO2 SLP109
                 T02170100 =
2018-05-25 07:54 METAR KBTV 251154Z 20011KT 10SM BKN090 BKN110 19/09 A2987 RMK AO2 SLP112 ACSL E
                 T01940089 10194 20172 58006 =
2018-05-25 06:54 METAR KBTV 251054Z 20008KT 10SM SCT100 BKN200 18/08 A2988 RMK AO2 SLP116
                 T01830083 =
2018-05-25 05:54 METAR KBTV 250954Z 19011KT 10SM FEW120 BKN200 18/08 A2989 RMK AO2 SLP119
                 T01780078 =
2018-05-25 04:54 METAR KBTV 250854Z AUTO 18009G17KT 10SM CLR 18/07 A2988 RMK AO2 SLP119 T01830072
                 56008 =
2018-05-25 03:54 METAR KBTV 250754Z AUTO 18011G18KT 10SM CLR 19/06 A2989 RMK AO2 SLP119 T01890061
                 =
2018-05-25 02:54 METAR KBTV 250654Z AUTO 17011KT 10SM CLR 19/06 A2989 RMK AO2 SLP120 T01940056 =
2018-05-25 01:54 METAR KBTV 250554Z AUTO 18009KT 10SM CLR 19/06 A2991 RMK AO2 SLP127 T01890056
                 10217 20139 56017 =
2018-05-25 00:54 METAR KBTV 250454Z AUTO 19009KT 10SM CLR 19/06 A2992 RMK AO2 SLP132 T01890056
                 402390083 =
2018-05-24 23:54 METAR KBTV 250354Z 13003KT 10SM FEW080 16/07 A2994 RMK AO2 SLP138 LAST T01560067
                 =
2018-05-24 22:54 METAR KBTV 250254Z 00000KT 10SM FEW080 16/06 A2996 RMK AO2 SLP145 T01560061
                 58011 =
2018-05-24 21:54 METAR KBTV 250154Z 15004KT 10SM CLR 16/07 A2998 RMK AO2 SLP152 T01610067 =
2018-05-24 20:54 METAR KBTV 250054Z 12003KT 10SM FEW250 18/06 A2998 RMK AO2 SLP153 T01830061 =

Support USWX by starting your Amazon purchase here.